Creve Coeur, Illinois
Current Conditions -  °F | °C
As of 3:54 AM on Thursday 23 Oct 2014 (Local Time) from KPIA Reporting Station
Clear Clear  
Wind Chill: 40°   Ceiling: Unl
Heat Index: 44°   Visibility: 10mi
Dew Point: 36°   Wind: 7mph
Humidity: 73%   Direction: 150°SSE
Pressure: 30.2"   Gusts: NA
Location:  40.65°N, 89.6°W
Report Text: KPIA 230854Z 15006KT 10SM CLR 07/02 A3020 RMK AO2 SLP227 T00670022 58011 $
Loading
Personal Weather Stations






























Interactive Weather Map
Tropical Storm Tracking
New forecast layout! Learn more

10-Day Weather Forecast

Advertisements
Track Severe Weather on mobile